Time;durP1;ratioP1;P1;durP2;ratioP2;P2;SDS_P1;SDS_P2;PMS_P1;PMS_P2;Temp;Humidity;BMP_temperature;BMP_pressure;BME280_temperature;BME280_humidity;BME280_pressure;Samples;Min_cycle;Max_cycle;Signal;HPM_P1;HPM_P2
2021/11/07 00:06:39;;;;;;;18.48;4.18;;;;;;;11.59;100.00;101752.75;5029262;28;20063;-77
2021/11/07 00:11:36;;;;;;;18.50;3.40;;;;;;;11.61;100.00;101751.03;5030617;28;20052;-75
2021/11/07 00:14:05;;;;;;;24.02;4.30;;;;;;;11.64;100.00;101744.09;5020717;28;20017;-77
2021/11/07 00:16:33;;;;;;;18.25;3.80;;;;;;;11.67;100.00;101748.56;5021240;28;20045;-77
2021/11/07 00:22:06;;;;;;;28.95;4.47;;;;;;;11.66;100.00;101757.31;5024874;28;20128;-77
2021/11/07 00:24:44;;;;;;;21.08;3.92;;;;;;;11.73;100.00;101750.47;5034019;28;20108;-76
2021/11/07 00:32:52;;;;;;;17.15;5.03;;;;;;;11.84;100.00;101734.91;5030897;28;20120;-76
2021/11/07 00:37:42;;;;;;;23.88;5.45;;;;;;;11.95;100.00;101749.28;5028069;28;20029;-77
2021/11/07 00:45:48;;;;;;;21.83;5.55;;;;;;;12.03;100.00;101752.13;5024501;28;20485;-76
2021/11/07 00:48:20;;;;;;;;;;;;;;;12.05;100.00;101739.91;5029478;28;20389;-76
2021/11/07 01:01:21;;;;;;;23.70;6.10;;;;;;;11.86;100.00;101741.16;5026644;28;20048;-76
2021/11/07 01:03:48;;;;;;;26.00;6.22;;;;;;;11.84;100.00;101745.47;5029164;28;20029;-77
2021/11/07 01:06:13;;;;;;;27.92;6.28;;;;;;;11.82;100.00;101726.97;5026755;28;20029;-77
2021/11/07 01:08:39;;;;;;;22.75;6.13;;;;;;;11.83;100.00;101734.03;5024351;28;20532;-76
2021/11/07 01:11:05;;;;;;;26.75;6.20;;;;;;;11.81;100.00;101723.47;5033679;28;20037;-78
2021/11/07 01:13:31;;;;;;;19.27;5.90;;;;;;;11.85;100.00;101729.69;5027263;28;20090;-78
2021/11/07 01:15:57;;;;;;;32.38;7.00;;;;;;;11.87;100.00;101719.16;5030545;28;20469;-76
2021/11/07 01:18:22;;;;;;;31.45;6.07;;;;;;;11.86;100.00;101722.69;5028644;28;20429;-77
2021/11/07 01:20:49;;;;;;;24.75;7.82;;;;;;;11.85;100.00;101720.88;5035600;28;20034;-77
2021/11/07 01:26:12;;;;;;;24.25;6.78;;;;;;;11.80;100.00;101703.22;5031555;28;20061;-77
2021/11/07 01:28:40;;;;;;;21.15;7.13;;;;;;;11.74;100.00;101710.06;5034887;28;20120;-76
2021/11/07 01:31:06;;;;;;;34.53;8.38;;;;;;;11.66;100.00;101708.97;5039538;28;20355;-78
2021/11/07 01:33:32;;;;;;;29.02;7.80;;;;;;;11.63;100.00;101715.94;5023664;28;20099;-77
2021/11/07 01:38:35;;;;;;;25.88;7.18;;;;;;;11.61;100.00;101715.03;5021610;28;20032;-77
2021/11/07 01:41:04;;;;;;;29.48;8.15;;;;;;;11.65;100.00;101715.97;5028582;28;20037;-77
2021/11/07 01:43:30;;;;;;;29.23;7.60;;;;;;;11.68;100.00;101712.53;5030322;28;20029;-76
2021/11/07 01:48:48;;;;;;;31.90;8.23;;;;;;;11.70;100.00;101701.19;5033428;28;20470;-76
2021/11/07 01:51:13;;;;;;;23.80;7.28;;;;;;;11.72;100.00;101704.75;5032282;28;20461;-76
2021/11/07 01:53:39;;;;;;;28.52;7.72;;;;;;;11.75;100.00;101712.75;5022247;28;20032;-76
2021/11/07 01:56:08;;;;;;;27.58;6.85;;;;;;;11.78;100.00;101694.34;5030333;28;20438;-78
2021/11/07 01:58:35;;;;;;;32.75;6.95;;;;;;;11.79;100.00;101680.31;5032520;28;20030;-77
2021/11/07 02:01:00;;;;;;;22.33;5.68;;;;;;;11.85;100.00;101676.94;5032017;28;20087;-77
2021/11/07 02:03:26;;;;;;;18.05;5.70;;;;;;;11.88;100.00;101676.13;5036220;28;20033;-78
2021/11/07 02:05:52;;;;;;;24.02;5.80;;;;;;;11.88;100.00;101679.69;5029252;28;20494;-77
2021/11/07 02:08:20;;;;;;;17.73;5.38;;;;;;;11.90;100.00;101662.13;5018000;28;20089;-76
2021/11/07 02:10:45;;;;;;;22.38;6.47;;;;;;;11.94;100.00;101658.75;5031463;28;20017;-77
2021/11/07 02:13:11;;;;;;;26.85;6.85;;;;;;;11.96;100.00;101650.84;5030719;28;20378;-77
2021/11/07 02:15:37;;;;;;;23.10;6.45;;;;;;;12.00;100.00;101663.25;5028601;28;20104;-78
2021/11/07 02:18:03;;;;;;;18.10;5.90;;;;;;;12.05;100.00;101653.72;5027108;28;20496;-77
2021/11/07 02:20:38;;;;;;;20.17;6.05;;;;;;;12.05;100.00;101640.53;5027592;28;20083;-76
2021/11/07 02:23:08;;;;;;;28.30;5.85;;;;;;;12.08;100.00;101639.72;5022961;28;20466;-77
2021/11/07 02:25:35;;;;;;;18.70;5.05;;;;;;;12.07;100.00;101646.75;5034898;28;20105;-78
2021/11/07 02:28:03;;;;;;;19.92;5.80;;;;;;;12.07;100.00;101662.56;5029376;28;20518;-77
2021/11/07 02:30:28;;;;;;;19.05;5.03;;;;;;;12.06;100.00;101666.06;5021662;28;20147;-78
2021/11/07 02:32:54;;;;;;;18.40;5.20;;;;;;;12.07;100.00;101646.75;5030780;28;20421;-78
2021/11/07 02:35:20;;;;;;;24.95;5.15;;;;;;;12.05;100.00;101651.09;5033642;28;20473;-77
2021/11/07 02:37:46;;;;;;;15.95;3.85;;;;;;;12.06;100.00;101644.97;5025780;28;20108;-78
2021/11/07 02:40:12;;;;;;;19.38;4.38;;;;;;;12.00;100.00;101650.06;5032728;28;20029;-77
2021/11/07 02:42:41;;;;;;;13.82;4.70;;;;;;;11.91;100.00;101637.53;5022942;28;20087;-77
2021/11/07 02:45:07;;;;;;;13.82;4.18;;;;;;;11.81;100.00;101633.81;5029052;28;20047;-77
2021/11/07 02:47:32;;;;;;;20.20;4.05;;;;;;;11.75;100.00;101641.53;5024650;28;20064;-78
2021/11/07 02:49:58;;;;;;;15.45;4.00;;;;;;;11.71;100.00;101644.09;5029688;28;20044;-77
2021/11/07 02:52:23;;;;;;;19.75;4.05;;;;;;;11.66;100.00;101641.31;5027796;28;20486;-77
2021/11/07 02:54:50;;;;;;;16.88;4.45;;;;;;;11.57;100.00;101641.06;5029334;28;20030;-77
2021/11/07 02:57:19;;;;;;;19.55;3.60;;;;;;;11.51;100.00;101639.19;5032300;28;20030;-77
2021/11/07 02:59:48;;;;;;;13.45;3.42;;;;;;;11.50;100.00;101647.06;5026749;28;20487;-79
2021/11/07 03:02:14;;;;;;;17.60;4.28;;;;;;;11.47;100.00;101648.75;5030143;28;20092;-77
2021/11/07 03:04:40;;;;;;;24.00;4.40;;;;;;;11.46;100.00;101647.00;5024970;28;20474;-77
2021/11/07 03:07:07;;;;;;;18.45;4.15;;;;;;;11.44;100.00;101663.59;5031449;28;20045;-76
2021/11/07 03:09:34;;;;;;;20.33;3.53;;;;;;;11.40;100.00;101657.34;5029859;28;20033;-77
2021/11/07 03:12:02;;;;;;;22.02;4.60;;;;;;;11.40;99.49;101652.09;5029018;28;20021;-77
2021/11/07 03:14:32;;;;;;;20.85;4.05;;;;;;;11.45;94.09;101645.19;5021848;28;20037;-77
2021/11/07 03:16:59;;;;;;;20.10;3.65;;;;;;;11.41;93.56;101632.78;5028946;28;20017;-77
2021/11/07 03:19:27;;;;;;;23.55;3.55;;;;;;;11.40;89.02;101644.19;5032557;28;20029;-77
2021/11/07 03:22:06;;;;;;;17.63;3.47;;;;;;;11.39;86.00;101634.47;5023873;28;20045;-79
2021/11/07 03:24:31;;;;;;;9.38;2.53;;;;;;;11.32;82.92;101635.19;5025225;28;20068;-78
2021/11/07 03:26:58;;;;;;;16.25;3.40;;;;;;;11.25;81.08;101625.34;5026708;28;20037;-78
2021/11/07 03:29:32;;;;;;;13.68;2.58;;;;;;;11.24;79.93;101626.19;5025478;28;20432;-78
2021/11/07 03:32:10;;;;;;;12.30;2.70;;;;;;;11.25;78.40;101609.53;5027638;28;20104;-77
2021/11/07 03:34:52;;;;;;;13.60;2.10;;;;;;;11.22;79.00;101617.38;5028780;28;20386;-78
2021/11/07 03:37:25;;;;;;;17.92;2.28;;;;;;;11.20;76.40;101619.94;5018031;28;20029;-76
2021/11/07 03:39:52;;;;;;;17.80;3.55;;;;;;;11.22;74.79;101601.56;5020148;28;20056;-78
2021/11/07 03:42:18;;;;;;;9.18;2.20;;;;;;;11.18;76.41;101595.31;5029105;28;20033;-77
2021/11/07 03:44:44;;;;;;;8.38;2.05;;;;;;;11.17;77.02;101614.59;5021048;28;20027;-78
2021/11/07 03:47:10;;;;;;;14.60;2.50;;;;;;;11.17;75.75;101611.97;5034371;28;20025;-77
2021/11/07 03:49:37;;;;;;;20.90;2.67;;;;;;;11.18;76.18;101599.66;5040518;28;20056;-77
2021/11/07 03:52:03;;;;;;;16.98;2.47;;;;;;;11.14;75.54;101593.44;5027890;28;20440;-78
2021/11/07 03:54:32;;;;;;;21.25;2.33;;;;;;;11.10;75.48;101603.00;5031131;28;20186;-76
2021/11/07 03:56:59;;;;;;;15.82;2.65;;;;;;;11.08;76.04;101583.66;5029710;28;20029;-77
2021/11/07 03:59:25;;;;;;;14.43;2.47;;;;;;;11.06;75.32;101585.34;5027585;28;20392;-77
2021/11/07 04:01:52;;;;;;;17.67;3.67;;;;;;;11.01;76.29;101586.94;5023413;28;20484;-77
2021/11/07 04:04:17;;;;;;;14.75;2.15;;;;;;;11.01;77.20;101607.13;5031298;28;20029;-79
2021/11/07 04:06:43;;;;;;;19.00;2.70;;;;;;;11.00;78.37;101606.25;5031507;28;20038;-78
2021/11/07 04:09:09;;;;;;;21.05;3.13;;;;;;;11.01;78.74;101615.91;5035026;28;20450;-79
2021/11/07 04:11:36;;;;;;;20.48;3.38;;;;;;;10.99;79.54;101611.47;5032664;28;21138;-79
2021/11/07 04:14:02;;;;;;;17.38;2.95;;;;;;;11.01;79.85;101623.81;5035662;28;20043;-79
2021/11/07 04:16:27;;;;;;;23.77;3.90;;;;;;;11.03;79.95;101624.78;5027278;28;20033;-78
2021/11/07 04:18:53;;;;;;;15.88;3.45;;;;;;;11.07;80.49;101629.28;5032291;28;20693;-78
2021/11/07 04:21:20;;;;;;;17.88;3.00;;;;;;;11.09;81.48;101617.00;5040826;28;20385;-78
2021/11/07 04:23:45;;;;;;;18.60;3.10;;;;;;;11.14;81.05;101610.13;5025860;28;20048;-78
2021/11/07 04:26:10;;;;;;;22.13;3.67;;;;;;;11.16;81.67;101619.81;5035729;28;20026;-77
2021/11/07 04:28:36;;;;;;;30.42;4.47;;;;;;;11.19;80.87;101630.44;5035954;28;20528;-78
2021/11/07 04:31:02;;;;;;;17.98;3.65;;;;;;;11.24;80.15;101610.38;5025404;28;20116;-78
2021/11/07 04:33:27;;;;;;;16.45;4.07;;;;;;;11.24;81.15;101608.63;5030094;28;20033;-78
2021/11/07 04:35:52;;;;;;;16.45;3.03;;;;;;;11.20;81.45;101626.97;5032288;28;20030;-78
2021/11/07 04:38:18;;;;;;;14.98;3.13;;;;;;;11.20;81.21;101634.88;5032500;28;20022;-77
2021/11/07 04:40:45;;;;;;;14.10;3.25;;;;;;;11.20;80.45;101619.06;5029432;28;20113;-77
2021/11/07 04:43:11;;;;;;;20.13;3.58;;;;;;;11.18;78.98;101610.19;5030338;28;20022;-78
2021/11/07 04:45:36;;;;;;;16.05;3.22;;;;;;;11.13;78.32;101613.59;5036807;28;20117;-78
2021/11/07 04:48:03;;;;;;;19.05;3.08;;;;;;;11.10;76.72;101605.63;5035552;28;20104;-79
2021/11/07 04:50:28;;;;;;;15.38;3.30;;;;;;;11.05;76.81;101588.81;5035361;28;20038;-78
2021/11/07 04:52:54;;;;;;;17.08;3.53;;;;;;;11.03;76.69;101601.06;5031661;28;20036;-76
2021/11/07 04:55:20;;;;;;;18.63;3.08;;;;;;;10.96;76.50;101609.66;5033142;28;20025;-78
2021/11/07 04:57:45;;;;;;;23.48;3.42;;;;;;;10.91;76.31;101616.53;5036724;28;20366;-77
2021/11/07 05:00:15;;;;;;;15.43;3.20;;;;;;;10.93;76.53;101604.28;5032040;28;20465;-76
2021/11/07 05:02:40;;;;;;;18.67;2.83;;;;;;;10.96;76.72;101596.50;5033100;28;20060;-78
2021/11/07 05:05:07;;;;;;;16.60;2.90;;;;;;;10.99;75.85;101600.91;5026270;28;20053;-77
2021/11/07 05:07:33;;;;;;;17.33;3.85;;;;;;;10.99;75.68;101604.47;5033406;28;20068;-78
2021/11/07 05:09:58;;;;;;;20.10;3.25;;;;;;;11.00;74.22;101598.34;5030262;28;20059;-77
2021/11/07 05:12:24;;;;;;;21.95;3.03;;;;;;;10.98;75.04;101605.31;5031976;28;20044;-77
2021/11/07 05:14:49;;;;;;;18.73;3.47;;;;;;;10.95;75.63;101607.88;5032899;28;20025;-78
2021/11/07 05:17:14;;;;;;;15.13;3.05;;;;;;;10.92;75.36;101602.50;5027158;28;20033;-78
2021/11/07 05:19:40;;;;;;;19.67;3.25;;;;;;;10.86;74.97;101597.97;5032935;28;20108;-78
2021/11/07 05:22:06;;;;;;;17.20;3.13;;;;;;;10.83;74.50;101603.16;5030931;28;20123;-78
2021/11/07 05:24:31;;;;;;;21.20;2.97;;;;;;;10.78;72.34;101600.41;5028214;28;20050;-78
2021/11/07 05:26:57;;;;;;;16.00;3.00;;;;;;;10.76;72.14;101599.44;5032823;28;20045;-78
2021/11/07 05:29:23;;;;;;;14.75;2.40;;;;;;;10.73;72.53;101599.38;5035217;28;20060;-78
2021/11/07 05:31:48;;;;;;;24.27;3.45;;;;;;;10.67;73.34;101611.47;5035907;28;20021;-78
2021/11/07 05:34:14;;;;;;;22.48;3.88;;;;;;;10.59;73.99;101619.13;5032616;28;20029;-78
2021/11/07 05:36:41;;;;;;;14.82;3.17;;;;;;;10.57;73.30;101623.47;5032920;28;20399;-78
2021/11/07 05:39:08;;;;;;;13.05;2.67;;;;;;;10.56;72.91;101605.91;5028144;28;20082;-79
2021/11/07 05:41:34;;;;;;;20.13;3.53;;;;;;;10.53;73.61;101617.22;5034327;28;20032;-78
2021/11/07 05:43:59;;;;;;;20.33;3.00;;;;;;;10.53;74.40;101621.59;5031828;28;20025;-78
2021/11/07 05:46:24;;;;;;;17.88;3.30;;;;;;;10.52;75.02;101617.19;5030306;28;20044;-78
2021/11/07 05:48:50;;;;;;;22.67;3.97;;;;;;;10.51;75.93;101626.78;5036915;28;20063;-78
2021/11/07 05:51:15;;;;;;;15.90;2.90;;;;;;;10.48;76.71;101623.22;5035211;28;20073;-78
2021/11/07 05:53:41;;;;;;;24.83;2.80;;;;;;;10.48;77.25;101620.56;5032111;28;20037;-77
2021/11/07 05:56:07;;;;;;;21.30;3.25;;;;;;;10.45;77.65;101627.50;5027232;28;20052;-77
2021/11/07 05:58:32;;;;;;;22.88;3.63;;;;;;;10.45;77.65;101635.41;5029515;28;20014;-77
2021/11/07 06:00:58;;;;;;;24.00;6.13;;;;;;;10.46;77.91;101645.09;5032752;28;20042;-77
2021/11/07 06:03:24;;;;;;;15.55;2.92;;;;;;;10.48;77.76;101641.63;5033622;28;20071;-77
2021/11/07 06:05:50;;;;;;;13.07;2.67;;;;;;;10.42;77.66;101635.31;5036452;28;20385;-77
2021/11/07 06:08:15;;;;;;;27.42;3.67;;;;;;;10.42;77.98;101645.84;5025055;28;20099;-78
2021/11/07 06:10:41;;;;;;;28.75;2.92;;;;;;;10.37;78.04;101647.44;5030465;28;20060;-78
2021/11/07 06:13:06;;;;;;;19.45;2.88;;;;;;;10.37;77.44;101639.56;5027572;28;20021;-77
2021/11/07 06:15:31;;;;;;;15.80;2.88;;;;;;;10.37;77.72;101643.94;5029937;28;20104;-78
2021/11/07 06:17:57;;;;;;;15.10;3.25;;;;;;;10.34;78.17;101630.66;5030413;28;20049;-79
2021/11/07 06:20:23;;;;;;;20.10;3.38;;;;;;;10.29;78.19;101641.94;5033402;28;20419;-78
2021/11/07 06:22:48;;;;;;;20.58;3.10;;;;;;;10.32;77.70;101645.50;5035927;28;20048;-78
2021/11/07 06:25:14;;;;;;;25.42;3.65;;;;;;;10.31;78.03;101639.34;5032096;28;20045;-77
2021/11/07 06:27:40;;;;;;;24.50;3.67;;;;;;;10.30;77.85;101648.06;5033576;28;20048;-77
2021/11/07 06:30:08;;;;;;;19.83;2.92;;;;;;;10.30;77.58;101648.06;5030990;28;20033;-78
2021/11/07 06:32:34;;;;;;;32.17;4.43;;;;;;;10.30;76.83;101633.19;5032433;28;20064;-77
2021/11/07 06:34:59;;;;;;;19.38;2.80;;;;;;;10.27;77.25;101640.97;5035515;28;20026;-77
2021/11/07 06:37:25;;;;;;;21.92;3.65;;;;;;;10.29;77.43;101656.81;5031375;28;20044;-77
2021/11/07 06:39:50;;;;;;;24.85;3.60;;;;;;;10.28;77.46;101657.63;5030366;28;20036;-78
2021/11/07 06:42:15;;;;;;;22.90;3.22;;;;;;;10.24;77.79;101647.88;5029868;28;20064;-77
2021/11/07 06:44:41;;;;;;;21.40;3.25;;;;;;;10.24;77.85;101653.13;5029502;28;20037;-78
2021/11/07 06:47:08;;;;;;;24.33;4.03;;;;;;;10.27;77.64;101663.78;5032020;28;20466;-78
2021/11/07 06:49:35;;;;;;;25.33;4.25;;;;;;;10.29;77.51;101656.81;5030242;28;20021;-79
2021/11/07 06:52:00;;;;;;;23.27;3.42;;;;;;;10.23;77.98;101668.03;5023910;28;20037;-79
2021/11/07 06:54:27;;;;;;;17.70;2.92;;;;;;;10.22;77.74;101668.88;5002708;28;20178;-77
2021/11/07 06:56:52;;;;;;;13.82;2.35;;;;;;;10.25;77.33;101655.81;5026299;28;20109;-78
2021/11/07 06:59:18;;;;;;;23.33;3.40;;;;;;;10.24;77.84;101668.91;5035528;28;20076;-78
2021/11/07 07:01:43;;;;;;;16.50;2.88;;;;;;;10.22;77.95;101670.63;5033657;28;20087;-78
2021/11/07 07:04:09;;;;;;;30.05;3.58;;;;;;;10.22;77.98;101660.09;5042915;28;20053;-77
2021/11/07 07:06:36;;;;;;;16.33;2.67;;;;;;;10.21;78.00;101663.56;5033044;28;20018;-77
2021/11/07 07:09:07;;;;;;;17.58;3.28;;;;;;;10.21;77.92;101655.69;5027126;28;20060;-78
2021/11/07 07:14:10;;;;;;;21.38;3.03;;;;;;;10.21;77.69;101653.06;5030813;28;20044;-79
2021/11/07 07:16:44;;;;;;;20.30;2.58;;;;;;;10.26;77.82;101667.25;5033548;28;20025;-79
2021/11/07 07:19:36;;;;;;;17.13;3.13;;;;;;;10.29;78.14;101664.69;5028765;28;20420;-78
2021/11/07 07:22:13;;;;;;;21.98;4.13;;;;;;;10.30;78.35;101671.75;5032348;28;20095;-78
2021/11/07 07:25:00;;;;;;;18.02;2.97;;;;;;;10.30;78.84;101669.13;5027270;28;20425;-79
2021/11/07 07:30:10;;;;;;;20.92;3.45;;;;;;;10.25;79.43;101668.97;5029760;28;20049;-77
2021/11/07 07:35:28;;;;;;;17.92;3.20;;;;;;;10.21;79.50;101677.59;5023108;28;20037;-78
2021/11/07 07:37:57;;;;;;;21.17;2.72;;;;;;;10.19;79.93;101681.06;5028536;28;20024;-79
2021/11/07 07:40:24;;;;;;;17.70;2.90;;;;;;;10.19;80.07;101675.78;5028229;28;20105;-78
2021/11/07 07:42:50;;;;;;;13.75;3.85;;;;;;;10.19;79.59;101681.94;5033812;28;20091;-77
2021/11/07 07:45:16;;;;;;;15.18;2.47;;;;;;;10.25;78.98;101681.22;5021551;28;20057;-77
2021/11/07 07:47:43;;;;;;;22.27;3.35;;;;;;;10.28;79.74;101690.13;5027806;28;20056;-78
2021/11/07 07:50:11;;;;;;;22.15;3.33;;;;;;;10.34;79.89;101688.53;5034709;28;20033;-80
2021/11/07 07:52:37;;;;;;;24.75;2.95;;;;;;;10.38;79.71;101688.69;5032731;28;20392;-77
2021/11/07 07:55:04;;;;;;;20.50;3.20;;;;;;;10.44;79.49;101693.25;5019652;28;20026;-78
2021/11/07 07:57:30;;;;;;;17.30;2.45;;;;;;;10.51;78.28;101689.06;5032173;28;20049;-77
2021/11/07 07:59:55;;;;;;;17.17;2.67;;;;;;;10.57;77.44;101689.28;5034256;28;20022;-77
2021/11/07 08:02:21;;;;;;;12.40;2.60;;;;;;;10.58;77.16;101691.94;5024548;28;20421;-76
2021/11/07 08:04:46;;;;;;;17.63;2.97;;;;;;;10.62;77.58;101690.28;5027004;28;20104;-78
2021/11/07 08:07:11;;;;;;;19.17;3.40;;;;;;;10.62;76.85;101683.28;5025541;28;20478;-76
2021/11/07 08:09:37;;;;;;;20.35;3.35;;;;;;;10.63;76.87;101694.69;5031397;28;20036;-77
2021/11/07 08:12:02;;;;;;;20.15;2.80;;;;;;;10.63;77.66;101687.72;5029305;28;20433;-77
2021/11/07 08:14:28;;;;;;;21.42;3.10;;;;;;;10.58;77.86;101686.69;5030931;28;20033;-78
2021/11/07 08:16:53;;;;;;;23.65;3.45;;;;;;;10.56;78.14;101687.47;5038075;28;20032;-77
2021/11/07 08:19:18;;;;;;;19.70;2.90;;;;;;;10.53;78.02;101695.28;5042865;28;21352;-76
2021/11/07 08:21:45;;;;;;;19.55;3.30;;;;;;;10.57;77.86;101682.25;5040976;28;20449;-76
2021/11/07 08:24:12;;;;;;;21.73;2.90;;;;;;;10.53;78.33;101698.81;5035585;28;20052;-77
2021/11/07 08:26:42;;;;;;;21.65;3.00;;;;;;;10.51;78.49;101694.34;5026209;28;20369;-77
2021/11/07 08:29:11;;;;;;;16.17;3.03;;;;;;;10.53;78.70;101687.41;5029539;28;20029;-77
2021/11/07 08:31:37;;;;;;;13.25;2.42;;;;;;;10.53;78.10;101696.16;5028227;28;20040;-79
2021/11/07 08:34:06;;;;;;;14.48;2.92;;;;;;;10.62;77.19;101698.16;5032830;28;20029;-78
2021/11/07 08:39:07;;;;;;;20.55;2.63;;;;;;;10.77;75.88;101690.75;5028650;28;20052;-79
2021/11/07 08:41:33;;;;;;;16.08;3.00;;;;;;;10.88;75.97;101688.44;5034324;28;20030;-79
2021/11/07 09:00:28;;;;;;;19.60;3.22;;;;;;;11.59;71.61;101684.19;5035918;28;20091;-78
2021/11/07 09:03:17;;;;;;;19.63;3.05;;;;;;;11.72;71.29;101683.66;5035900;28;20037;-79
2021/11/07 09:05:53;;;;;;;16.55;2.88;;;;;;;11.80;70.09;101678.56;5030484;28;20025;-77
2021/11/07 09:08:21;;;;;;;16.58;2.70;;;;;;;11.86;70.00;101669.94;5034759;28;20040;-78
2021/11/07 09:10:47;;;;;;;16.80;2.70;;;;;;;11.99;69.78;101687.84;5029349;28;20124;-77
2021/11/07 09:13:14;;;;;;;19.48;3.03;;;;;;;12.16;69.54;101690.91;5035074;28;20470;-77
2021/11/07 09:15:43;;;;;;;17.98;2.92;;;;;;;12.28;68.83;101675.34;5035763;28;20033;-77
2021/11/07 09:18:09;;;;;;;18.55;3.08;;;;;;;12.26;69.22;101677.09;5034762;28;20021;-77
2021/11/07 09:29:00;;;;;;;18.23;3.42;;;;;;;12.69;68.03;101686.81;5032617;28;20401;-78
2021/11/07 09:36:32;;;;;;;24.83;3.83;;;;;;;12.14;67.93;101682.97;5030649;28;20043;-77
2021/11/07 09:39:18;;;;;;;19.38;3.55;;;;;;;11.82;69.50;101698.84;5035506;28;20021;-79
2021/11/07 09:44:22;;;;;;;20.40;3.45;;;;;;;11.78;70.13;101701.38;5033331;28;20032;-79
2021/11/07 09:51:57;;;;;;;20.90;2.90;;;;;;;11.61;71.53;101706.22;5026812;28;20087;-73
2021/11/07 09:54:23;;;;;;;18.50;2.50;;;;;;;11.68;70.39;101713.44;5028166;28;20034;-73
2021/11/07 09:56:53;;;;;;;15.95;2.60;;;;;;;11.70;69.32;101705.56;5034316;28;20128;-75
2021/11/07 09:59:20;;;;;;;19.85;2.78;;;;;;;11.90;69.00;101701.69;5032556;28;20071;-74
2021/11/07 10:01:50;;;;;;;15.88;2.95;;;;;;;11.82;69.30;101695.34;5031343;28;20041;-74
2021/11/07 10:04:16;;;;;;;20.42;3.83;;;;;;;11.70;69.74;101706.44;5030048;28;20033;-74
2021/11/07 10:06:45;;;;;;;20.88;3.58;;;;;;;11.91;68.72;101699.94;5034483;28;20056;-74
2021/11/07 10:09:33;;;;;;;18.35;3.53;;;;;;;12.39;67.92;101702.00;5032531;28;20041;-76
2021/11/07 10:12:04;;;;;;;20.90;3.13;;;;;;;12.38;67.15;101709.88;5029200;28;20029;-73
2021/11/07 10:14:49;;;;;;;20.67;3.05;;;;;;;12.25;67.85;101716.59;5029941;28;20393;-73
2021/11/07 10:17:35;;;;;;;17.50;2.85;;;;;;;12.19;68.34;101705.94;5030161;28;20436;-76
2021/11/07 10:20:08;;;;;;;15.90;2.80;;;;;;;12.01;69.45;101722.22;5036675;28;20466;-75
2021/11/07 10:22:34;;;;;;;;;;;;;;;11.97;68.93;101706.28;5029504;28;20079;-75
2021/11/07 10:25:00;;;;;;;16.00;2.95;;;;;;;12.00;69.64;101715.16;5036992;28;19917;-76
2021/11/07 10:27:26;;;;;;;25.20;3.92;;;;;;;11.93;70.63;101709.66;5026836;28;20026;-74
2021/11/07 10:30:05;;;;;;;22.40;3.72;;;;;;;11.86;71.02;101702.47;5025357;28;20026;-74
2021/11/07 10:32:37;;;;;;;19.58;3.10;;;;;;;11.79;71.41;101705.81;5029115;28;20068;-73
2021/11/07 10:41:46;;;;;;;21.60;3.55;;;;;;;12.96;67.19;101707.63;5032874;28;20044;-75
2021/11/07 10:47:00;;;;;;;27.80;3.63;;;;;;;12.86;66.68;101695.06;5032755;28;19920;-74
2021/11/07 10:52:22;;;;;;;16.80;3.03;;;;;;;12.46;66.67;101690.72;5042001;28;20063;-74
2021/11/07 10:54:47;;;;;;;18.98;3.15;;;;;;;12.25;67.26;101700.78;5035222;28;20033;-74
2021/11/07 10:57:23;;;;;;;21.50;3.58;;;;;;;12.56;68.04;101690.91;5025151;28;20082;-72
2021/11/07 11:00:07;;;;;;;21.52;3.42;;;;;;;12.85;65.76;101694.19;5030588;28;20408;-74
2021/11/07 11:02:36;;;;;;;24.60;4.90;;;;;;;12.98;65.30;101690.03;5028500;28;20044;-74
2021/11/07 11:05:09;;;;;;;25.13;4.10;;;;;;;12.63;66.37;101699.03;5029728;28;20033;-75
2021/11/07 11:07:56;;;;;;;18.83;3.15;;;;;;;12.81;66.03;101692.34;5030184;28;20029;-75
2021/11/07 11:10:30;;;;;;;18.30;3.03;;;;;;;13.02;66.18;101697.16;5033977;28;20063;-75
2021/11/07 11:13:05;;;;;;;20.42;3.53;;;;;;;13.53;63.56;101689.38;5028885;28;20122;-75
2021/11/07 11:15:50;;;;;;;26.50;3.70;;;;;;;14.00;60.07;101678.72;5028501;28;20032;-73
2021/11/07 11:24:03;;;;;;;16.48;3.60;;;;;;;15.04;56.90;101674.84;5030890;28;20045;-73
2021/11/07 11:29:29;;;;;;;16.35;3.67;;;;;;;14.36;59.45;101685.41;5026109;28;20038;-71
2021/11/07 11:34:29;;;;;;;19.88;3.28;;;;;;;13.03;63.97;101695.44;5026503;28;20152;-73
2021/11/07 11:37:03;;;;;;;24.13;3.67;;;;;;;12.84;65.07;101699.44;5029663;28;20074;-72
2021/11/07 11:39:35;;;;;;;16.73;3.47;;;;;;;12.67;65.76;101689.44;5024486;28;20347;-72
2021/11/07 11:42:21;;;;;;;20.10;3.97;;;;;;;12.71;65.48;101704.47;5032676;28;20026;-75
2021/11/07 11:44:51;;;;;;;24.88;4.15;;;;;;;12.50;66.80;101696.97;5032887;28;20028;-73
2021/11/07 11:58:59;;;;;;;25.92;3.60;;;;;;;11.69;70.67;101711.69;5018067;28;20044;-73
2021/11/07 12:01:37;;;;;;;20.55;3.60;;;;;;;11.70;71.28;101706.44;5028817;28;20029;-74
2021/11/07 12:04:27;;;;;;;25.52;3.53;;;;;;;11.72;70.71;101710.03;5031523;28;20068;-73
2021/11/07 12:07:10;;;;;;;24.77;4.10;;;;;;;12.33;69.39;101704.50;5029624;28;20069;-75
2021/11/07 12:10:22;;;;;;;19.05;4.00;;;;;;;13.33;64.30;101682.81;5026663;28;20385;-72
2021/11/07 12:12:47;;;;;;;24.80;4.38;;;;;;;14.27;60.65;101672.94;5027248;28;20041;-73
2021/11/07 12:17:40;;;;;;;22.55;3.70;;;;;;;15.20;57.15;101667.94;5029966;28;20080;-74
2021/11/07 12:20:29;;;;;;;32.47;4.72;;;;;;;14.74;58.96;101671.81;5026936;28;20157;-73
2021/11/07 12:23:28;;;;;;;23.50;4.05;;;;;;;13.92;61.52;101673.28;5030389;28;20390;-75
2021/11/07 12:25:56;;;;;;;23.00;4.78;;;;;;;13.95;62.42;101675.09;5018028;28;20128;-75
2021/11/07 12:28:42;;;;;;;30.85;4.28;;;;;;;13.41;63.61;101680.34;5028128;28;20030;-73
2021/11/07 12:31:08;;;;;;;23.48;3.50;;;;;;;13.08;65.16;101680.56;5033863;28;20030;-73
2021/11/07 12:33:54;;;;;;;30.17;4.00;;;;;;;12.51;67.75;101703.13;5029883;28;20528;-72
2021/11/07 12:42:16;;;;;;;21.77;3.45;;;;;;;12.50;68.81;101696.97;5025720;28;20091;-74
2021/11/07 12:44:47;;;;;;;23.60;4.70;;;;;;;12.37;69.25;101701.09;5025674;28;20080;-75
2021/11/07 12:47:13;;;;;;;30.15;5.20;;;;;;;12.16;69.80;101711.13;5027383;28;20057;-73
2021/11/07 12:49:40;;;;;;;35.15;4.20;;;;;;;11.88;73.32;101713.03;5035772;28;20033;-72
2021/11/07 12:52:05;;;;;;;28.70;4.60;;;;;;;11.48;76.01;101711.16;5034115;28;20096;-72
2021/11/07 12:54:40;;;;;;;23.98;4.40;;;;;;;11.24;77.55;101716.66;5028340;28;20034;-74
2021/11/07 12:57:05;;;;;;;33.72;3.83;;;;;;;11.16;78.19;101717.28;5026859;28;20373;-74
2021/11/07 12:59:49;;;;;;;33.47;4.93;;;;;;;11.76;76.45;101716.25;5032173;28;20129;-73
2021/11/07 13:02:17;;;;;;;29.83;4.75;;;;;;;12.03;74.33;101725.75;5028623;28;20449;-74
2021/11/07 13:05:17;;;;;;;28.15;4.07;;;;;;;11.76;74.81;101709.25;5036200;28;20497;-74
2021/11/07 13:07:51;;;;;;;32.78;5.82;;;;;;;11.65;75.00;101713.34;5022335;28;20382;-76
2021/11/07 13:10:28;;;;;;;25.65;3.67;;;;;;;11.56;74.61;101715.75;5031647;28;20028;-73
2021/11/07 13:13:02;;;;;;;29.80;4.82;;;;;;;11.55;75.24;101711.34;5033769;28;20393;-74
2021/11/07 13:24:15;;;;;;;21.48;3.47;;;;;;;11.39;72.12;101703.00;5035162;28;20040;-74
2021/11/07 13:34:51;;;;;;;30.15;4.78;;;;;;;11.31;74.46;101707.16;5023883;28;20045;-73
2021/11/07 13:37:22;;;;;;;23.75;4.30;;;;;;;11.40;74.48;101710.06;5030317;28;20534;-74
2021/11/07 13:39:47;;;;;;;25.33;3.92;;;;;;;11.57;72.35;101706.97;5030947;28;20087;-73
2021/11/07 13:42:14;;;;;;;28.17;4.30;;;;;;;11.75;70.86;101710.09;5033712;28;20080;-74
2021/11/07 13:44:55;;;;;;;26.67;3.47;;;;;;;11.79;70.72;101701.41;5031646;28;20038;-74
2021/11/07 13:47:36;;;;;;;26.35;3.83;;;;;;;11.91;69.93;101694.66;5029479;28;20379;-74
2021/11/07 13:50:05;;;;;;;29.88;4.82;;;;;;;11.98;69.06;101691.38;5020731;28;20033;-73
2021/11/07 13:52:32;;;;;;;31.80;3.95;;;;;;;11.89;68.43;101688.47;5031631;28;20025;-73
2021/11/07 13:54:58;;;;;;;27.23;4.78;;;;;;;11.81;69.21;101689.19;5026612;28;20034;-72
2021/11/07 13:57:29;;;;;;;21.70;3.60;;;;;;;11.72;69.75;101702.13;5026529;28;20026;-74